Time;durP1;ratioP1;P1;durP2;ratioP2;P2;SDS_P1;SDS_P2;PMS_P1;PMS_P2;Temp;Humidity;BMP_temperature;BMP_pressure;BME280_temperature;BME280_humidity;BME280_pressure;Samples;Min_cycle;Max_cycle;Signal;HPM_P1;HPM_P2
2022/03/14 00:01:16;;;;;;;23.50;12.00;;;;;;;0.61;57.60;100892.06;25323;1306;3026587;-65
2022/03/14 00:03:55;;;;;;;25.80;12.20;;;;;;;0.62;57.71;100895.52;25219;1306;3026883;-64
2022/03/14 00:06:26;;;;;;;23.10;11.40;;;;;;;0.63;58.12;100893.29;25225;1306;3053324;-65
2022/03/14 00:08:55;;;;;;;24.70;10.90;;;;;;;0.71;57.16;100891.75;25298;1306;3028771;-66
2022/03/14 00:11:28;;;;;;;25.10;11.40;;;;;;;0.74;57.23;100890.21;25256;1306;3029116;-66
2022/03/14 00:14:08;;;;;;;24.60;11.80;;;;;;;0.73;57.27;100890.72;25248;1306;3052393;-67
2022/03/14 00:16:43;;;;;;;24.00;12.10;;;;;;;0.70;57.89;100892.26;25273;1306;3025956;-70
2022/03/14 00:19:32;;;;;;;26.20;11.60;;;;;;;0.68;57.87;100890.54;25230;1306;3054900;-67
2022/03/14 00:22:01;;;;;;;23.70;12.50;;;;;;;0.71;58.02;100889.52;25225;1306;3026541;-68
2022/03/14 00:24:31;;;;;;;29.00;12.70;;;;;;;0.73;57.61;100888.14;25271;1306;3026689;-66
2022/03/14 00:27:20;;;;;;;27.70;12.40;;;;;;;0.76;57.39;100891.25;25247;1306;3053458;-69
2022/03/14 00:30:10;;;;;;;23.60;12.80;;;;;;;0.76;57.38;100888.14;25269;1306;3052363;-67
2022/03/14 00:32:41;;;;;;;27.80;13.50;;;;;;;0.74;57.54;100888.31;25271;1306;3029093;-64
2022/03/14 00:35:11;;;;;;;27.30;12.80;;;;;;;0.71;58.31;100893.65;25188;1306;3026450;-69
2022/03/14 00:37:41;;;;;;;31.00;13.60;;;;;;;0.72;58.02;100889.52;25262;1306;3027785;-68
2022/03/14 00:40:11;;;;;;;27.20;13.60;;;;;;;0.69;58.16;100889.49;25241;1306;3026506;-66
2022/03/14 00:42:43;;;;;;;26.90;12.80;;;;;;;0.69;58.22;100886.92;25226;1306;3026441;-67
2022/03/14 00:45:12;;;;;;;26.50;12.30;;;;;;;0.69;58.10;100885.20;25298;1306;3027289;-68
2022/03/14 00:47:41;;;;;;;26.50;12.30;;;;;;;0.71;57.82;100887.96;23809;1306;8879625;-63
2022/03/14 00:50:10;;;;;;;33.80;17.60;;;;;;;0.89;57.01;100885.23;25260;1305;3049728;-68
2022/03/14 00:52:40;;;;;;;39.00;15.00;;;;;;;1.15;56.72;100886.13;25220;1306;3026202;-70
2022/03/14 00:55:09;;;;;;;26.20;13.30;;;;;;;1.00;57.15;100883.18;25235;1306;3026974;-69
2022/03/14 00:57:38;;;;;;;28.00;13.30;;;;;;;0.95;57.29;100882.48;25234;1306;3052049;-67
2022/03/14 01:00:08;;;;;;;22.90;11.50;;;;;;;0.91;57.33;100887.30;25212;1306;3027008;-64
2022/03/14 01:02:37;;;;;;;26.10;12.30;;;;;;;0.90;57.38;100893.02;25264;1305;3026402;-68
2022/03/14 01:05:07;;;;;;;30.30;13.00;;;;;;;0.88;57.27;100897.65;25232;1305;3026566;-68
2022/03/14 01:07:37;;;;;;;28.10;12.00;;;;;;;0.89;57.15;100898.70;25275;1306;3027482;-67
2022/03/14 01:10:08;;;;;;;22.40;11.30;;;;;;;0.85;57.15;100900.06;25242;1306;3027470;-70
2022/03/14 01:12:38;;;;;;;27.90;12.70;;;;;;;0.79;57.35;100899.02;25197;1306;3027523;-65
2022/03/14 01:15:08;;;;;;;25.10;12.70;;;;;;;0.79;57.37;100901.43;25226;1306;3026787;-67
2022/03/14 01:17:37;;;;;;;26.90;12.90;;;;;;;0.80;57.55;100906.44;25238;1306;3026101;-68
2022/03/14 01:20:08;;;;;;;25.80;12.80;;;;;;;0.80;57.76;100906.44;25233;1306;3027459;-70
2022/03/14 01:22:38;;;;;;;25.90;12.00;;;;;;;0.78;57.67;100907.12;25223;1306;3026917;-70
2022/03/14 01:25:07;;;;;;;26.00;12.40;;;;;;;0.75;57.81;100907.11;25279;1306;3026656;-68
2022/03/14 01:27:36;;;;;;;22.20;11.60;;;;;;;0.77;57.33;100911.59;25248;1306;3028630;-65
2022/03/14 01:30:07;;;;;;;23.10;11.50;;;;;;;0.71;57.67;100914.16;25176;1306;3053151;-67
2022/03/14 01:32:36;;;;;;;22.50;10.60;;;;;;;0.68;57.84;100914.16;25229;1306;3027183;-63
2022/03/14 01:35:07;;;;;;;20.00;10.50;;;;;;;0.50;58.98;100916.84;25276;1306;3026209;-64
2022/03/14 01:37:36;;;;;;;28.80;11.80;;;;;;;0.52;59.01;100917.89;25268;1306;3054476;-63
2022/03/14 01:40:09;;;;;;;23.10;11.20;;;;;;;0.48;59.66;100925.64;25242;1306;3030406;-67
2022/03/14 01:42:38;;;;;;;23.10;10.90;;;;;;;0.35;59.95;100930.42;25308;1306;3026893;-70
2022/03/14 01:45:08;;;;;;;23.30;11.40;;;;;;;0.26;60.45;100925.71;25265;1306;3027716;-67
2022/03/14 01:47:39;;;;;;;23.50;11.10;;;;;;;0.26;60.70;100926.42;25314;1306;3026243;-71
2022/03/14 01:50:09;;;;;;;20.60;10.10;;;;;;;0.25;60.90;100929.50;25257;1306;3026570;-70
2022/03/14 01:52:39;;;;;;;20.50;9.90;;;;;;;0.20;61.19;100931.02;25282;1306;3027272;-68
2022/03/14 01:55:08;;;;;;;21.30;9.90;;;;;;;0.18;61.33;100930.84;25296;1305;3027562;-68
2022/03/14 01:57:39;;;;;;;26.10;9.80;;;;;;;0.15;61.39;100935.30;25269;1306;3026759;-68
2022/03/14 02:00:10;;;;;;;18.40;10.00;;;;;;;0.06;61.75;100933.36;25323;1306;3026798;-66
2022/03/14 02:02:48;;;;;;;19.40;9.90;;;;;;;0.02;61.89;100930.93;25306;1306;3055737;-67
2022/03/14 02:05:19;;;;;;;22.70;10.50;;;;;;;0.09;61.31;100934.23;25261;1306;3026664;-69
2022/03/14 02:07:48;;;;;;;20.80;9.90;;;;;;;0.11;61.29;100941.67;25243;1306;3028421;-67
2022/03/14 02:10:24;;;;;;;29.40;11.10;;;;;;;0.07;61.55;100944.57;25258;1307;3051813;-66
2022/03/14 02:12:55;;;;;;;19.40;10.00;;;;;;;0.13;61.11;100944.26;25229;1306;3026117;-64
2022/03/14 02:15:37;;;;;;;16.90;9.20;;;;;;;0.17;60.78;100943.92;25224;1306;3054697;-69
2022/03/14 02:18:09;;;;;;;16.60;9.20;;;;;;;0.10;61.19;100949.75;25291;1306;3026885;-68
2022/03/14 02:20:39;;;;;;;20.10;8.80;;;;;;;0.13;61.14;100948.40;25259;1306;3026517;-68
2022/03/14 02:23:08;;;;;;;19.10;8.80;;;;;;;0.11;60.81;100947.17;25234;1306;3026675;-68
2022/03/14 02:25:46;;;;;;;18.80;9.40;;;;;;;0.07;61.22;100948.52;25314;1306;3056786;-67
2022/03/14 02:28:19;;;;;;;20.80;8.90;;;;;;;0.03;61.59;100950.06;25202;1306;3050853;-66
2022/03/14 02:30:49;;;;;;;17.60;8.90;;;;;;;-0.00;61.62;100947.64;25270;1306;3026815;-65
2022/03/14 02:33:21;;;;;;;17.80;8.70;;;;;;;0.02;61.81;100948.84;25263;1306;3027680;-68
2022/03/14 02:35:50;;;;;;;19.60;8.60;;;;;;;0.08;60.99;100946.81;25263;1306;3026657;-67
2022/03/14 02:38:19;;;;;;;19.20;8.20;;;;;;;-0.02;61.53;100948.81;25264;1306;3052156;-66
2022/03/14 02:40:49;;;;;;;17.50;8.10;;;;;;;0.03;61.51;100949.03;25280;1306;3026611;-64
2022/03/14 02:43:22;;;;;;;16.80;8.70;;;;;;;0.10;61.09;100948.55;25283;1306;3048027;-71
2022/03/14 02:45:53;;;;;;;17.90;9.00;;;;;;;0.05;61.71;100952.48;25255;1306;3052510;-68
2022/03/14 02:48:24;;;;;;;17.00;9.30;;;;;;;-0.08;62.33;100954.63;25280;1306;3026534;-69
2022/03/14 02:50:53;;;;;;;18.50;8.80;;;;;;;-0.16;62.74;100958.37;25280;1306;3027591;-66
2022/03/14 02:53:22;;;;;;;18.20;8.90;;;;;;;-0.19;63.11;100957.31;25245;1306;3028808;-67
2022/03/14 02:55:51;;;;;;;21.40;9.50;;;;;;;-0.10;62.62;100959.11;25202;1306;3051288;-65
2022/03/14 02:58:21;;;;;;;16.20;8.90;;;;;;;-0.12;62.96;100960.98;25239;1305;3026875;-64
2022/03/14 03:00:52;;;;;;;15.60;8.50;;;;;;;-0.08;62.59;100967.38;25275;1306;3027181;-67
2022/03/14 03:03:21;;;;;;;17.40;8.30;;;;;;;-0.14;63.03;100963.55;25191;1306;3026784;-69
2022/03/14 03:05:53;;;;;;;15.60;8.10;;;;;;;-0.14;62.93;100969.75;25296;1306;3026760;-68
2022/03/14 03:08:22;;;;;;;17.70;8.60;;;;;;;-0.17;63.24;100966.11;25234;1306;3027303;-70
2022/03/14 03:10:52;;;;;;;15.70;8.30;;;;;;;-0.26;63.76;100965.52;25172;1306;3026211;-68
2022/03/14 03:13:22;;;;;;;18.20;8.30;;;;;;;-0.29;64.03;100966.37;25311;1306;3054764;-65
2022/03/14 03:15:53;;;;;;;17.90;9.10;;;;;;;-0.38;64.58;100965.42;25261;1306;3026604;-69
2022/03/14 03:18:24;;;;;;;16.50;9.10;;;;;;;-0.49;65.42;100963.98;25261;1306;3026423;-68
2022/03/14 03:20:55;;;;;;;19.40;9.80;;;;;;;-0.52;65.66;100963.25;25209;1306;3055117;-69
2022/03/14 03:23:24;;;;;;;21.70;9.30;;;;;;;-0.56;65.86;100966.66;25223;1306;3026477;-68
2022/03/14 03:25:54;;;;;;;16.80;8.80;;;;;;;-0.51;65.73;100963.61;25283;1306;3051871;-66
2022/03/14 03:28:24;;;;;;;17.00;9.20;;;;;;;-0.45;65.38;100959.86;25255;1306;3026304;-64
2022/03/14 03:30:54;;;;;;;16.80;9.00;;;;;;;-0.50;66.15;100959.82;25237;1306;3028873;-63
2022/03/14 03:33:28;;;;;;;15.70;8.60;;;;;;;-0.57;66.93;100961.31;25199;1306;3069049;-65
2022/03/14 03:35:58;;;;;;;17.40;8.10;;;;;;;-0.60;67.27;100961.63;25239;1306;3026632;-65
2022/03/14 03:38:27;;;;;;;16.70;9.20;;;;;;;-0.52;66.91;100966.00;25278;1306;3049684;-66
2022/03/14 03:40:57;;;;;;;13.10;8.20;;;;;;;-0.49;66.93;100965.86;25234;1306;3026424;-64
2022/03/14 03:43:26;;;;;;;16.90;9.10;;;;;;;-0.45;66.57;100970.38;25239;1306;3026675;-66
2022/03/14 03:45:56;;;;;;;15.70;8.70;;;;;;;-0.53;67.49;100965.81;25333;1306;3053499;-65
2022/03/14 03:48:25;;;;;;;18.40;9.20;;;;;;;-0.49;67.34;100964.83;25258;1306;3026731;-63
2022/03/14 03:50:54;;;;;;;20.10;8.40;;;;;;;-0.45;67.53;100964.51;25305;1306;3026813;-70
2022/03/14 03:53:25;;;;;;;16.80;8.80;;;;;;;-0.41;67.18;100967.31;25321;1306;3051632;-65
2022/03/14 03:55:54;;;;;;;18.40;8.80;;;;;;;-0.41;67.16;100966.77;25286;1306;3027214;-63
2022/03/14 03:58:26;;;;;;;17.80;8.70;;;;;;;-0.43;67.33;100964.70;25292;1306;3026541;-64
2022/03/14 04:00:56;;;;;;;21.10;9.90;;;;;;;-0.41;67.17;100963.34;25337;1306;3026319;-64
2022/03/14 04:03:46;;;;;;;15.80;8.50;;;;;;;-0.45;67.48;100968.30;25230;1307;3056036;-64
2022/03/14 04:06:18;;;;;;;18.20;9.70;;;;;;;-0.50;68.21;100969.80;25286;1306;3028503;-65
2022/03/14 04:08:48;;;;;;;15.90;9.20;;;;;;;-0.48;67.93;100971.02;25310;1306;3026275;-67
2022/03/14 04:11:20;;;;;;;17.90;9.30;;;;;;;-0.48;68.28;100977.57;25315;1306;3027863;-67
2022/03/14 04:13:51;;;;;;;14.50;7.60;;;;;;;-0.58;69.23;100985.06;25242;1306;3026465;-65
2022/03/14 04:16:22;;;;;;;16.10;8.00;;;;;;;-0.55;69.27;100985.77;25236;1306;3026795;-63
2022/03/14 04:18:55;;;;;;;21.40;8.70;;;;;;;-0.56;69.36;100986.11;25256;1306;3049982;-65
2022/03/14 04:21:25;;;;;;;14.00;8.30;;;;;;;-0.54;69.47;100987.85;25278;1306;3026575;-66
2022/03/14 04:23:54;;;;;;;14.60;7.80;;;;;;;-0.48;69.04;100993.06;25328;1306;3026931;-67
2022/03/14 04:26:23;;;;;;;14.70;7.40;;;;;;;0.03;68.25;100996.92;25250;1306;3027142;-67
2022/03/14 04:28:53;;;;;;;18.30;8.50;;;;;;;0.62;66.35;101000.37;25231;1306;3054669;-67
2022/03/14 04:31:23;;;;;;;17.80;8.30;;;;;;;0.96;65.25;100997.74;25237;1306;3027057;-66
2022/03/14 04:33:53;;;;;;;16.70;7.70;;;;;;;0.86;64.97;100999.95;25285;1306;3027354;-67
2022/03/14 04:36:23;;;;;;;15.00;8.30;;;;;;;0.58;65.33;101002.23;25229;1306;3029454;-67
2022/03/14 04:38:52;;;;;;;19.40;9.00;;;;;;;0.33;66.27;101005.21;25324;1306;3026883;-69
2022/03/14 04:41:21;;;;;;;16.80;8.40;;;;;;;0.28;66.39;101010.70;25258;1306;3056320;-65
2022/03/14 04:43:50;;;;;;;16.70;7.80;;;;;;;0.22;66.49;101013.25;25290;1306;3027330;-65
2022/03/14 04:46:20;;;;;;;18.00;9.20;;;;;;;0.11;66.66;101014.38;25285;1306;3051301;-70
2022/03/14 04:48:50;;;;;;;17.50;8.60;;;;;;;-0.00;67.23;101016.70;25304;1305;3028482;-70
2022/03/14 04:51:20;;;;;;;18.20;9.00;;;;;;;0.02;67.05;101010.69;25232;1306;3026000;-65
2022/03/14 04:53:49;;;;;;;18.30;8.90;;;;;;;-0.02;67.18;101016.34;25230;1306;3055893;-67
2022/03/14 04:56:18;;;;;;;14.90;8.70;;;;;;;-0.08;66.14;101013.20;25205;1306;3029638;-68
2022/03/14 04:58:47;;;;;;;19.30;9.20;;;;;;;-0.21;66.27;101016.73;25233;1306;3026512;-65
2022/03/14 05:01:22;;;;;;;23.40;9.60;;;;;;;-0.09;65.84;101021.81;25209;1306;3050694;-67
2022/03/14 05:04:00;;;;;;;18.10;8.30;;;;;;;-0.19;65.38;101024.66;25287;1306;3058467;-65
2022/03/14 05:06:30;;;;;;;16.50;8.30;;;;;;;-0.18;64.90;101020.52;25319;1306;3028596;-68
2022/03/14 05:09:00;;;;;;;19.70;8.70;;;;;;;-0.20;65.39;101017.41;25361;1306;3027098;-67
2022/03/14 05:11:34;;;;;;;20.90;8.50;;;;;;;-0.32;65.03;101016.95;25336;1306;3054622;-68
2022/03/14 05:14:09;;;;;;;14.30;8.30;;;;;;;-0.28;64.56;101019.06;25237;1306;3028975;-67
2022/03/14 05:16:38;;;;;;;16.00;8.00;;;;;;;-0.37;64.05;101018.30;25270;1304;3047748;-68
2022/03/14 05:19:11;;;;;;;13.40;7.70;;;;;;;-0.38;63.95;101014.34;25256;1306;3027921;-69
2022/03/14 05:21:40;;;;;;;14.50;7.20;;;;;;;-0.29;63.76;101018.73;25319;1306;3028639;-69
2022/03/14 05:24:10;;;;;;;15.70;7.60;;;;;;;-0.35;62.83;101020.04;25317;1306;3028485;-66
2022/03/14 05:26:42;;;;;;;13.10;7.50;;;;;;;-0.49;62.80;101018.38;25312;1306;3027343;-67
2022/03/14 05:29:14;;;;;;;13.70;6.70;;;;;;;-0.37;62.60;101018.81;25281;1306;3026935;-66
2022/03/14 05:31:43;;;;;;;13.60;7.10;;;;;;;-0.41;61.93;101019.14;25314;1306;3026660;-64
2022/03/14 05:34:13;;;;;;;13.60;6.90;;;;;;;-0.26;61.73;101011.52;25186;1306;3029389;-66
2022/03/14 05:36:44;;;;;;;15.10;6.90;;;;;;;-0.38;61.89;101020.36;25188;1306;3054813;-68
2022/03/14 05:39:13;;;;;;;14.70;8.50;;;;;;;-0.53;62.03;101020.39;25212;1306;3026190;-68
2022/03/14 05:41:42;;;;;;;14.30;7.60;;;;;;;-0.52;62.18;101020.92;25259;1306;3026420;-65
2022/03/14 05:44:11;;;;;;;14.50;7.40;;;;;;;-0.37;61.87;101025.02;25266;1306;3052068;-67
2022/03/14 05:46:40;;;;;;;13.00;7.70;;;;;;;-0.38;61.74;101023.30;25275;1306;3026528;-68
2022/03/14 05:49:09;;;;;;;17.20;8.70;;;;;;;-0.41;61.96;101027.56;25227;1306;3049628;-66
2022/03/14 05:51:39;;;;;;;15.50;8.00;;;;;;;-0.54;62.19;101031.41;25231;1306;3027454;-67
2022/03/14 05:54:09;;;;;;;11.70;6.70;;;;;;;-0.52;62.14;101034.86;25233;1306;3027693;-67
2022/03/14 05:56:39;;;;;;;14.50;8.00;;;;;;;-0.39;62.17;101033.60;25248;1306;3026822;-69
2022/03/14 05:59:09;;;;;;;14.50;6.10;;;;;;;-0.49;62.00;101033.17;25193;1305;3026181;-66
2022/03/14 06:01:39;;;;;;;13.40;7.50;;;;;;;-0.46;61.96;101034.57;25306;1306;3051372;-63
2022/03/14 06:04:08;;;;;;;12.30;7.00;;;;;;;-0.46;62.06;101034.07;25309;1306;3027213;-67
2022/03/14 06:06:38;;;;;;;11.50;6.90;;;;;;;-0.51;62.06;101034.17;25218;1305;3026250;-66
2022/03/14 06:09:13;;;;;;;13.40;6.90;;;;;;;-0.54;62.85;101032.95;25277;1306;3051231;-65
2022/03/14 06:11:45;;;;;;;12.80;6.50;;;;;;;-0.47;62.18;101038.52;25275;1306;3026899;-69
2022/03/14 06:14:15;;;;;;;12.20;6.40;;;;;;;-0.59;61.36;101042.55;25218;1306;3026991;-68
2022/03/14 06:16:44;;;;;;;12.90;6.50;;;;;;;-0.54;61.62;101037.94;25317;1306;3027454;-67
2022/03/14 06:19:15;;;;;;;11.50;6.90;;;;;;;-0.56;61.30;101038.09;25288;1305;3028317;-66
2022/03/14 06:21:45;;;;;;;11.10;6.60;;;;;;;-0.58;61.80;101042.38;25334;1306;3026178;-67
2022/03/14 06:24:14;;;;;;;11.50;6.20;;;;;;;-0.50;61.96;101037.29;25247;1306;3026573;-65
2022/03/14 06:26:43;;;;;;;13.20;6.80;;;;;;;-0.59;62.00;101040.65;25298;1306;3055265;-65
2022/03/14 06:29:13;;;;;;;12.40;6.90;;;;;;;-0.50;61.85;101030.75;25269;1306;3026669;-70
2022/03/14 06:31:43;;;;;;;14.00;7.70;;;;;;;-0.51;62.05;101035.58;25241;1306;3027221;-68
2022/03/14 06:34:12;;;;;;;14.70;7.30;;;;;;;-0.56;62.26;101032.23;25279;1306;3026166;-66
2022/03/14 06:36:44;;;;;;;10.00;5.70;;;;;;;-0.54;60.52;101030.36;25293;1306;3058699;-65
2022/03/14 06:39:14;;;;;;;11.10;5.70;;;;;;;-0.57;60.33;101026.38;25208;1306;3026924;-66
2022/03/14 06:41:44;;;;;;;8.90;5.10;;;;;;;-0.52;59.23;101030.73;25261;1309;3026689;-66
2022/03/14 06:44:14;;;;;;;9.70;4.50;;;;;;;-0.61;59.07;101029.60;25298;1306;3029605;-69
2022/03/14 06:46:47;;;;;;;7.20;4.50;;;;;;;-0.61;59.14;101029.27;25296;1306;3027981;-68
2022/03/14 06:49:17;;;;;;;8.80;4.40;;;;;;;-0.79;59.31;101033.71;25308;1306;3026543;-68
2022/03/14 06:51:47;;;;;;;10.10;5.40;;;;;;;-0.64;59.34;101023.04;25275;1305;3028347;-65
2022/03/14 06:54:16;;;;;;;9.00;4.80;;;;;;;-0.53;57.82;101023.32;25306;1306;3026428;-67
2022/03/14 06:56:47;;;;;;;8.60;4.10;;;;;;;-0.31;57.65;101025.08;25222;1306;3026188;-68
2022/03/14 06:59:16;;;;;;;8.30;4.60;;;;;;;-0.29;56.59;101024.58;25290;1306;3028928;-69
2022/03/14 07:01:45;;;;;;;8.40;5.30;;;;;;;-0.33;56.44;101026.95;25242;1306;3026804;-69
2022/03/14 07:04:14;;;;;;;11.30;4.40;;;;;;;-0.36;57.11;101028.30;25260;1306;3056126;-67
2022/03/14 07:06:45;;;;;;;9.10;4.50;;;;;;;-0.45;57.46;101029.23;25294;1306;3027370;-71
2022/03/14 07:09:14;;;;;;;7.00;4.20;;;;;;;-0.37;57.44;101030.70;25266;1305;3026632;-69
2022/03/14 07:11:44;;;;;;;5.50;3.50;;;;;;;-0.49;56.55;101036.44;25315;1306;3026469;-68
2022/03/14 07:14:14;;;;;;;9.10;4.10;;;;;;;-0.47;55.88;101036.29;25285;1306;3028711;-69
2022/03/14 07:16:43;;;;;;;7.90;4.10;;;;;;;-0.45;55.80;101034.42;25262;1306;3026561;-68
2022/03/14 07:19:14;;;;;;;6.80;3.40;;;;;;;-0.29;55.27;101039.02;25265;1306;3054253;-68
2022/03/14 07:21:43;;;;;;;7.10;4.00;;;;;;;-0.34;54.98;101040.88;25251;1305;3027657;-65
2022/03/14 07:24:13;;;;;;;6.20;3.70;;;;;;;-0.14;54.55;101034.68;25249;1306;3055788;-64
2022/03/14 07:26:42;;;;;;;11.30;4.80;;;;;;;-0.03;54.05;101034.09;25321;1306;3027783;-68
2022/03/14 07:29:13;;;;;;;7.60;4.10;;;;;;;0.07;54.23;101034.35;25240;1306;3049803;-68
2022/03/14 07:31:43;;;;;;;9.10;4.70;;;;;;;0.21;53.72;101031.86;25232;1306;3026646;-65
2022/03/14 07:34:14;;;;;;;7.00;4.20;;;;;;;0.37;53.06;101030.24;25265;1306;3026505;-67
2022/03/14 07:36:44;;;;;;;7.80;4.40;;;;;;;0.33;52.75;101029.52;25260;1306;3049560;-68
2022/03/14 07:39:13;;;;;;;6.70;3.80;;;;;;;0.31;52.56;101035.71;25285;1306;3026775;-68
2022/03/14 07:41:44;;;;;;;9.70;3.90;;;;;;;0.33;52.70;101031.23;25298;1306;3026863;-71
2022/03/14 07:44:14;;;;;;;7.80;4.10;;;;;;;0.25;52.33;101035.68;25289;1306;3027148;-68
2022/03/14 07:46:43;;;;;;;8.10;4.70;;;;;;;0.20;52.61;101035.64;25300;1306;3026071;-67
2022/03/14 07:49:14;;;;;;;8.50;5.00;;;;;;;0.11;52.61;101035.73;25276;1306;3026625;-67
2022/03/14 07:51:46;;;;;;;8.80;4.30;;;;;;;0.04;53.11;101040.69;25257;1306;3070517;-70
2022/03/14 07:54:17;;;;;;;6.90;4.50;;;;;;;0.08;52.79;101045.89;25282;1306;3027056;-68
2022/03/14 07:56:46;;;;;;;8.30;3.90;;;;;;;0.32;52.46;101036.58;25287;1306;3026745;-68
2022/03/14 07:59:26;;;;;;;9.50;4.70;;;;;;;0.47;51.86;101038.75;25272;1306;3071525;-66
2022/03/14 08:01:55;;;;;;;9.40;4.80;;;;;;;0.48;51.98;101042.72;25235;1306;3028031;-72
2022/03/14 08:04:24;;;;;;;8.20;4.30;;;;;;;0.38;52.53;101050.25;25339;1306;3050438;-70
2022/03/14 08:06:53;;;;;;;8.00;4.70;;;;;;;0.37;52.92;101045.23;25239;1306;3028829;-69
2022/03/14 08:09:23;;;;;;;9.20;4.60;;;;;;;0.55;52.89;101047.06;25256;1306;3027597;-69
2022/03/14 08:12:12;;;;;;;9.00;4.50;;;;;;;0.53;51.92;101043.09;25287;1306;3054993;-69
2022/03/14 08:14:46;;;;;;;6.40;4.20;;;;;;;0.53;51.96;101042.58;25252;1309;3028273;-69
2022/03/14 08:17:26;;;;;;;8.90;4.70;;;;;;;0.57;52.04;101041.38;25326;1306;3059594;-70
2022/03/14 08:19:55;;;;;;;9.60;4.70;;;;;;;0.74;51.88;101041.65;25217;1306;3027274;-68
2022/03/14 08:22:25;;;;;;;9.30;5.70;;;;;;;0.80;52.16;101039.08;25226;1306;3054674;-70
2022/03/14 08:24:54;;;;;;;10.00;4.40;;;;;;;0.97;52.38;101040.02;25239;1306;3026382;-67
2022/03/14 08:27:23;;;;;;;9.20;5.20;;;;;;;0.54;52.69;101041.88;25240;1306;3052050;-67
2022/03/14 08:29:53;;;;;;;13.00;4.60;;;;;;;0.53;52.57;101038.44;25274;1306;3026313;-67
2022/03/14 08:32:22;;;;;;;11.80;5.50;;;;;;;0.46;52.79;101041.50;25289;1306;3026432;-68
2022/03/14 08:34:53;;;;;;;9.60;5.10;;;;;;;0.62;52.33;101034.86;25296;1306;3052499;-67
2022/03/14 08:37:22;;;;;;;11.80;4.40;;;;;;;0.92;51.82;101033.79;25284;1306;3026736;-69
2022/03/14 08:39:51;;;;;;;9.10;4.80;;;;;;;1.14;51.23;101030.59;25248;1305;3026580;-69
2022/03/14 08:42:20;;;;;;;9.80;5.00;;;;;;;1.27;50.62;101023.89;25240;1306;3027254;-70
2022/03/14 08:44:49;;;;;;;8.80;4.50;;;;;;;1.60;49.58;101022.91;25278;1306;3053901;-70
2022/03/14 08:47:19;;;;;;;7.50;3.90;;;;;;;1.71;48.87;101021.38;25239;1306;3026814;-64
2022/03/14 08:49:48;;;;;;;7.80;4.60;;;;;;;1.62;48.54;101024.65;25229;1306;3053456;-69
2022/03/14 08:52:18;;;;;;;8.60;4.50;;;;;;;1.71;48.07;101019.98;25285;1305;3028297;-70
2022/03/14 08:54:47;;;;;;;7.80;4.50;;;;;;;2.01;47.11;101016.53;25217;1306;3026648;-68
2022/03/14 08:57:16;;;;;;;7.40;4.20;;;;;;;2.07;46.46;101014.46;25255;1306;3026627;-70
2022/03/14 08:59:46;;;;;;;8.80;4.50;;;;;;;1.79;47.38;101015.85;25238;1306;3051380;-68
2022/03/14 09:02:15;;;;;;;7.30;4.60;;;;;;;1.62;47.71;101021.37;25214;1306;3026940;-67
2022/03/14 09:04:47;;;;;;;8.80;3.70;;;;;;;0.94;48.62;101023.45;25281;1306;3053429;-68
2022/03/14 09:07:27;;;;;;;8.30;4.70;;;;;;;0.98;48.99;101020.18;25238;1306;3026887;-67
2022/03/14 09:10:01;;;;;;;11.70;4.70;;;;;;;0.84;48.94;101016.85;25267;1306;3057185;-69
2022/03/14 09:12:34;;;;;;;7.60;4.10;;;;;;;0.75;49.33;101015.77;25239;1306;3051135;-68
2022/03/14 09:15:07;;;;;;;8.60;4.30;;;;;;;0.99;49.12;101007.08;25242;1306;3053792;-68
2022/03/14 09:17:50;;;;;;;9.60;5.50;;;;;;;0.99;50.32;101005.86;25251;1306;3026225;-69
2022/03/14 09:20:21;;;;;;;8.30;4.60;;;;;;;1.14;50.32;101003.67;25265;1306;3070014;-69
2022/03/14 09:22:50;;;;;;;8.90;5.10;;;;;;;1.01;50.91;100997.07;25233;1306;3026470;-68
2022/03/14 09:25:21;;;;;;;7.20;4.40;;;;;;;1.07;50.38;101002.78;25251;1306;3030864;-67
2022/03/14 09:27:50;;;;;;;10.10;5.30;;;;;;;0.85;50.19;101009.79;25280;1306;3068609;-67
2022/03/14 09:30:20;;;;;;;9.90;5.60;;;;;;;0.80;50.49;101011.32;25289;1306;3026491;-66
2022/03/14 09:32:49;;;;;;;10.10;5.20;;;;;;;0.87;50.06;101008.41;25267;1306;3028630;-70
2022/03/14 09:35:19;;;;;;;9.20;5.10;;;;;;;0.91;49.91;101009.98;25263;1306;3026486;-71
2022/03/14 09:37:50;;;;;;;7.80;4.90;;;;;;;1.09;49.53;101001.08;25190;1306;3026620;-70
2022/03/14 09:40:20;;;;;;;9.50;5.10;;;;;;;1.30;49.02;100999.91;25264;1306;3026615;-66
2022/03/14 09:42:53;;;;;;;9.10;4.60;;;;;;;1.25;48.61;101004.39;25302;1306;3026601;-66
2022/03/14 09:45:22;;;;;;;7.30;4.40;;;;;;;0.88;49.63;101007.90;25281;1306;3026838;-67
2022/03/14 09:48:01;;;;;;;10.20;5.50;;;;;;;0.72;50.24;100998.70;25278;1306;3029804;-69
2022/03/14 09:50:32;;;;;;;12.70;6.30;;;;;;;0.74;50.38;100996.98;25241;1306;3051540;-67
2022/03/14 09:53:06;;;;;;;12.50;6.00;;;;;;;0.93;50.21;100993.08;25283;1306;3026800;-67
2022/03/14 09:55:40;;;;;;;9.70;5.40;;;;;;;1.06;50.50;100986.91;25251;1306;3050780;-64
2022/03/14 09:58:13;;;;;;;12.60;5.90;;;;;;;1.28;50.26;100989.20;25302;1307;3057955;-66
2022/03/14 10:00:43;;;;;;;7.60;5.20;;;;;;;0.99;51.13;100997.59;25240;1306;3048976;-66
2022/03/14 10:03:13;;;;;;;10.10;5.30;;;;;;;0.62;52.74;100994.17;25236;1306;3027133;-66
2022/03/14 10:05:44;;;;;;;7.50;4.20;;;;;;;0.51;53.31;100996.86;25264;1306;3026373;-65
2022/03/14 10:08:14;;;;;;;13.80;5.90;;;;;;;0.42;53.47;100994.75;25255;1306;3026627;-66
2022/03/14 10:10:46;;;;;;;15.20;6.80;;;;;;;0.57;53.34;100990.52;25279;1306;3026571;-66
2022/03/14 10:13:16;;;;;;;9.50;5.10;;;;;;;0.62;53.05;100989.52;25281;1306;3026846;-67
2022/03/14 10:15:45;;;;;;;14.90;6.10;;;;;;;0.52;53.38;100988.77;25263;1306;3026411;-68
2022/03/14 10:18:17;;;;;;;11.50;5.10;;;;;;;0.46;53.30;100996.16;25252;1306;3049046;-68
2022/03/14 10:21:06;;;;;;;11.00;5.90;;;;;;;0.32;53.47;100992.63;25283;1306;3026762;-67
2022/03/14 10:23:36;;;;;;;9.40;5.20;;;;;;;0.49;53.21;100985.81;25244;1306;3054665;-68
2022/03/14 10:26:08;;;;;;;10.70;5.60;;;;;;;0.46;52.64;100981.32;25264;1306;3027919;-67
2022/03/14 10:28:38;;;;;;;9.10;5.40;;;;;;;0.45;52.36;100982.18;25278;1306;3026914;-67
2022/03/14 10:31:08;;;;;;;9.80;5.40;;;;;;;0.32;52.12;100983.66;25242;1307;3027039;-67
2022/03/14 10:33:39;;;;;;;9.80;5.90;;;;;;;0.36;52.15;100980.58;25251;1306;3026492;-66
2022/03/14 10:36:08;;;;;;;12.10;5.90;;;;;;;0.45;51.97;100985.45;25205;1306;3027498;-67
2022/03/14 10:38:42;;;;;;;11.00;5.50;;;;;;;0.51;51.83;100982.55;25258;1306;3026293;-71
2022/03/14 10:41:13;;;;;;;11.90;5.70;;;;;;;0.50;51.88;100975.31;25239;1306;3052752;-65
2022/03/14 10:43:42;;;;;;;8.50;5.40;;;;;;;0.54;51.66;100970.31;25257;1306;3026268;-67
2022/03/14 10:46:11;;;;;;;12.20;6.30;;;;;;;0.59;51.48;100973.11;25185;1306;3026870;-71
2022/03/14 10:48:45;;;;;;;9.20;4.90;;;;;;;0.72;51.39;100970.58;25269;1306;3052346;-68
2022/03/14 10:51:15;;;;;;;9.90;5.90;;;;;;;0.71;51.12;100966.77;25251;1307;3027625;-71
2022/03/14 10:53:45;;;;;;;14.10;6.60;;;;;;;0.77;51.34;100955.94;25304;1306;3026525;-67
2022/03/14 10:56:15;;;;;;;11.40;6.10;;;;;;;0.84;51.07;100957.85;25256;1306;3027160;-69
2022/03/14 10:58:45;;;;;;;12.00;6.60;;;;;;;0.95;50.67;100949.43;25257;1307;3026576;-70
2022/03/14 11:01:16;;;;;;;14.90;6.10;;;;;;;1.03;51.00;100950.49;25316;1306;3026267;-72
2022/03/14 11:03:46;;;;;;;14.20;6.60;;;;;;;1.10;50.55;100951.02;25195;1306;3027217;-69
2022/03/14 11:06:19;;;;;;;16.40;6.90;;;;;;;0.97;50.54;100949.77;25311;1307;3026788;-69
2022/03/14 11:08:51;;;;;;;12.70;6.50;;;;;;;0.96;50.59;100941.15;25223;1306;3054596;-69
2022/03/14 11:11:22;;;;;;;14.20;6.60;;;;;;;0.98;50.83;100942.19;25238;1306;3027376;-69
2022/03/14 11:13:55;;;;;;;10.70;6.20;;;;;;;0.97;50.82;100936.50;25285;1306;3027303;-68
2022/03/14 11:16:29;;;;;;;11.20;5.70;;;;;;;0.89;51.38;100936.82;25254;1306;3026723;-67
2022/03/14 11:18:59;;;;;;;13.70;7.30;;;;;;;1.02;51.50;100933.23;25281;1306;3052481;-69
2022/03/14 11:21:29;;;;;;;11.00;6.40;;;;;;;1.17;51.45;100934.81;25250;1306;3026439;-68
2022/03/14 11:23:58;;;;;;;13.50;6.20;;;;;;;1.18;51.54;100930.48;25255;1306;3026653;-70